Time;durP1;ratioP1;P1;durP2;ratioP2;P2;SDS_P1;SDS_P2;PMS_P1;PMS_P2;Temp;Humidity;BMP_temperature;BMP_pressure;BME280_temperature;BME280_humidity;BME280_pressure;Samples;Min_cycle;Max_cycle;Signal;HPM_P1;HPM_P2
2024/01/26 00:00:25;;;;;;;14.63;7.33;;;7.40;99.90;;;;;;5065251;28;20443;-67
2024/01/26 00:02:53;;;;;;;18.03;7.33;;;7.60;99.90;;;;;;5065473;28;20448;-67
2024/01/26 00:05:23;;;;;;;13.40;6.33;;;7.70;99.90;;;;;;5065675;28;20533;-67
2024/01/26 00:07:51;;;;;;;18.00;9.50;;;7.80;99.90;;;;;;5066133;28;20467;-66
2024/01/26 00:10:19;;;;;;;16.67;7.90;;;7.90;99.90;;;;;;5064675;28;20455;-66
2024/01/26 00:12:47;;;;;;;19.07;9.80;;;8.00;99.90;;;;;;5065289;28;20497;-67
2024/01/26 00:15:15;;;;;;;15.87;7.93;;;8.00;99.90;;;;;;5065038;28;20449;-68
2024/01/26 00:17:43;;;;;;;17.90;7.40;;;8.10;99.90;;;;;;5066739;28;20503;-66
2024/01/26 00:20:11;;;;;;;13.50;7.37;;;8.10;99.90;;;;;;5064327;28;20450;-68
2024/01/26 00:22:40;;;;;;;15.97;8.40;;;8.20;99.90;;;;;;5064283;28;20509;-66
2024/01/26 00:25:09;;;;;;;14.97;8.20;;;8.20;99.90;;;;;;5064925;28;20454;-67
2024/01/26 00:27:37;;;;;;;14.13;6.40;;;8.20;99.90;;;;;;5064798;28;20480;-67
2024/01/26 00:30:07;;;;;;;13.07;6.73;;;8.20;99.90;;;;;;5064660;28;20445;-67
2024/01/26 00:32:35;;;;;;;14.53;7.40;;;8.10;99.90;;;;;;5064247;28;20476;-67
2024/01/26 00:35:04;;;;;;;13.90;6.57;;;8.30;99.90;;;;;;5064543;28;21172;-66
2024/01/26 00:37:32;;;;;;;13.30;6.20;;;8.30;99.90;;;;;;5064981;28;20534;-67
2024/01/26 00:40:01;;;;;;;12.17;6.57;;;8.30;99.90;;;;;;5064670;28;20446;-66
2024/01/26 00:42:29;;;;;;;13.67;6.10;;;8.30;99.90;;;;;;5063480;28;20453;-67
2024/01/26 00:44:57;;;;;;;13.30;5.80;;;8.30;99.90;;;;;;5064215;28;20442;-67
2024/01/26 00:47:25;;;;;;;13.57;6.37;;;8.30;99.90;;;;;;5064561;28;21005;-67
2024/01/26 00:49:53;;;;;;;10.37;4.20;;;8.50;99.90;;;;;;5064204;28;20445;-68
2024/01/26 00:52:22;;;;;;;9.83;3.80;;;8.60;99.90;;;;;;5063596;28;20948;-66
2024/01/26 00:54:50;;;;;;;9.97;3.70;;;8.70;99.90;;;;;;5064617;28;20496;-66
2024/01/26 00:57:19;;;;;;;9.27;3.53;;;8.60;99.90;;;;;;5064800;28;20465;-67
2024/01/26 00:59:47;;;;;;;9.77;3.60;;;8.60;99.90;;;;;;5068286;28;20450;-67
2024/01/26 01:02:15;;;;;;;10.20;3.77;;;8.60;99.90;;;;;;5067121;28;20468;-67
2024/01/26 01:04:44;;;;;;;11.40;4.53;;;8.60;99.90;;;;;;5067870;28;21070;-69
2024/01/26 01:07:11;;;;;;;12.37;4.90;;;8.60;99.90;;;;;;5068222;28;21082;-69
2024/01/26 01:09:41;;;;;;;11.13;4.83;;;8.60;99.90;;;;;;5067757;28;20470;-67
2024/01/26 01:12:09;;;;;;;11.93;5.40;;;8.60;99.90;;;;;;5066908;28;20485;-68
2024/01/26 01:14:40;;;;;;;18.00;6.97;;;8.50;99.90;;;;;;5067646;28;20519;-69
2024/01/26 01:17:09;;;;;;;11.57;4.00;;;8.50;99.90;;;;;;5067748;28;20468;-68
2024/01/26 01:19:37;;;;;;;12.37;5.20;;;8.70;99.90;;;;;;5066536;28;20448;-66
2024/01/26 01:22:05;;;;;;;10.73;4.40;;;8.60;99.90;;;;;;5067803;28;21020;-66
2024/01/26 01:24:33;;;;;;;13.90;4.30;;;8.70;99.90;;;;;;5069003;28;20443;-69
2024/01/26 01:27:01;;;;;;;9.13;3.67;;;8.70;99.90;;;;;;5068906;28;20461;-68
2024/01/26 01:29:29;;;;;;;8.73;3.63;;;8.70;99.90;;;;;;5068763;28;21055;-66
2024/01/26 01:31:58;;;;;;;9.77;4.00;;;8.70;99.90;;;;;;5067321;28;20482;-67
2024/01/26 01:34:26;;;;;;;8.47;3.03;;;8.80;99.90;;;;;;5068514;28;20442;-67
2024/01/26 01:36:54;;;;;;;9.97;3.17;;;8.90;99.90;;;;;;5067762;28;20999;-66
2024/01/26 01:39:22;;;;;;;8.70;2.70;;;8.90;99.90;;;;;;5067636;28;20449;-66
2024/01/26 01:41:50;;;;;;;7.80;2.70;;;8.90;99.90;;;;;;5066081;28;20438;-67
2024/01/26 01:44:18;;;;;;;9.37;2.57;;;9.00;99.90;;;;;;5067452;28;20450;-67
2024/01/26 01:46:46;;;;;;;8.03;2.17;;;9.00;99.90;;;;;;5067477;28;20450;-69
2024/01/26 01:49:16;;;;;;;7.70;1.93;;;9.00;99.90;;;;;;5067262;28;20447;-67
2024/01/26 01:51:46;;;;;;;9.17;2.27;;;9.10;99.90;;;;;;5066274;28;21074;-67
2024/01/26 01:54:16;;;;;;;8.40;1.90;;;9.00;99.90;;;;;;5067287;28;20614;-67
2024/01/26 01:56:45;;;;;;;7.17;1.70;;;9.00;99.90;;;;;;5067032;28;20550;-67
2024/01/26 01:59:13;;;;;;;7.03;1.70;;;8.90;99.90;;;;;;5067355;28;20952;-68
2024/01/26 02:01:41;;;;;;;7.87;1.90;;;8.90;99.90;;;;;;5066556;28;20442;-67
2024/01/26 02:04:09;;;;;;;6.70;1.37;;;8.90;99.90;;;;;;5065877;28;20454;-66
2024/01/26 02:06:38;;;;;;;7.80;1.63;;;9.00;99.90;;;;;;5060652;28;20886;-68
2024/01/26 02:09:06;;;;;;;7.30;1.50;;;9.10;99.90;;;;;;5067727;28;20551;-67
2024/01/26 02:11:34;;;;;;;7.30;1.63;;;9.00;99.90;;;;;;5067132;28;20605;-66
2024/01/26 02:14:03;;;;;;;7.40;1.40;;;8.90;99.90;;;;;;5068308;28;20935;-66
2024/01/26 02:16:31;;;;;;;7.10;1.90;;;8.90;99.90;;;;;;5068084;28;20454;-66
2024/01/26 02:18:59;;;;;;;6.97;1.73;;;8.70;99.90;;;;;;5068334;28;21073;-67
2024/01/26 02:21:27;;;;;;;7.80;1.90;;;8.80;99.90;;;;;;5067352;28;20439;-66
2024/01/26 02:23:56;;;;;;;7.20;1.70;;;8.80;99.90;;;;;;5068808;28;20542;-67
2024/01/26 02:26:24;;;;;;;7.70;2.13;;;8.70;99.90;;;;;;5068760;28;20545;-66
2024/01/26 02:28:52;;;;;;;6.90;1.50;;;8.70;99.90;;;;;;5069621;28;20482;-66
2024/01/26 02:31:20;;;;;;;7.57;1.80;;;8.70;99.90;;;;;;5086271;28;20458;-67
2024/01/26 02:33:48;;;;;;;8.07;1.80;;;8.70;99.90;;;;;;5086659;28;20515;-67
2024/01/26 02:36:16;;;;;;;7.70;1.50;;;8.70;99.90;;;;;;5085906;28;20442;-67
2024/01/26 02:38:44;;;;;;;7.70;1.40;;;8.80;99.90;;;;;;5077858;28;20465;-66
2024/01/26 02:41:13;;;;;;;8.07;2.20;;;8.90;99.90;;;;;;5078591;28;20445;-67
2024/01/26 02:43:41;;;;;;;8.17;1.67;;;8.90;99.90;;;;;;5085989;28;20502;-67
2024/01/26 02:46:10;;;;;;;6.90;1.40;;;8.90;99.90;;;;;;5077278;28;20968;-67
2024/01/26 02:48:39;;;;;;;7.50;1.50;;;8.90;99.90;;;;;;5069835;28;20458;-67
2024/01/26 02:51:07;;;;;;;6.47;1.20;;;8.90;99.90;;;;;;5067053;28;20940;-66
2024/01/26 02:53:39;;;;;;;6.83;1.30;;;9.00;99.90;;;;;;5067889;28;20488;-66
2024/01/26 02:56:07;;;;;;;7.47;1.50;;;9.00;99.90;;;;;;5067912;28;20434;-67
2024/01/26 02:58:37;;;;;;;6.20;1.00;;;9.00;99.90;;;;;;5069367;28;20557;-66
2024/01/26 03:01:06;;;;;;;6.23;0.90;;;9.10;99.90;;;;;;5082870;28;20528;-66
2024/01/26 03:03:34;;;;;;;6.40;0.93;;;9.10;99.90;;;;;;5083798;28;20464;-68
2024/01/26 03:06:02;;;;;;;6.43;0.90;;;9.10;99.90;;;;;;5084018;28;20442;-68
2024/01/26 03:08:31;;;;;;;6.87;1.20;;;9.00;99.90;;;;;;5083453;28;20524;-66
2024/01/26 03:10:59;;;;;;;6.10;0.80;;;9.00;99.90;;;;;;5083246;28;20500;-66
2024/01/26 03:13:27;;;;;;;6.00;0.80;;;9.00;99.90;;;;;;5083803;28;20485;-66
2024/01/26 03:15:57;;;;;;;6.80;1.10;;;9.00;99.90;;;;;;5083753;28;20521;-67
2024/01/26 03:18:24;;;;;;;6.60;1.10;;;9.00;99.90;;;;;;5082897;28;20464;-67
2024/01/26 03:20:52;;;;;;;6.80;0.90;;;9.00;99.90;;;;;;5080235;28;20442;-67
2024/01/26 03:23:20;;;;;;;7.10;1.13;;;9.00;99.90;;;;;;5080356;28;20470;-68
2024/01/26 03:25:49;;;;;;;6.60;0.93;;;9.00;99.90;;;;;;5074248;28;21238;-67
2024/01/26 03:28:16;;;;;;;6.47;0.87;;;9.00;99.90;;;;;;5071607;28;20520;-67
2024/01/26 03:30:45;;;;;;;7.40;1.40;;;9.20;99.90;;;;;;5069441;28;20489;-67
2024/01/26 03:33:17;;;;;;;7.10;1.20;;;9.20;99.90;;;;;;5068539;28;20474;-67
2024/01/26 03:35:46;;;;;;;6.77;1.20;;;9.20;99.90;;;;;;5070363;28;20502;-67
2024/01/26 03:38:14;;;;;;;7.47;1.23;;;9.10;99.90;;;;;;5070266;28;20478;-67
2024/01/26 03:40:42;;;;;;;7.90;1.20;;;9.10;99.90;;;;;;5069023;28;20457;-66
2024/01/26 03:43:10;;;;;;;6.77;1.20;;;9.10;99.90;;;;;;5070336;28;20492;-66
2024/01/26 03:45:38;;;;;;;6.70;0.80;;;9.00;99.90;;;;;;5067302;28;20446;-67
2024/01/26 03:48:07;;;;;;;7.20;1.13;;;9.00;99.90;;;;;;5067065;28;20498;-66
2024/01/26 03:50:37;;;;;;;6.60;1.00;;;9.10;99.90;;;;;;5065276;28;20441;-66
2024/01/26 03:53:05;;;;;;;6.83;1.00;;;9.10;99.90;;;;;;5065574;28;20482;-66
2024/01/26 03:55:33;;;;;;;6.40;0.80;;;9.00;99.90;;;;;;5065876;28;21284;-66
2024/01/26 03:58:01;;;;;;;7.33;1.13;;;8.90;99.90;;;;;;5065793;28;20478;-66
2024/01/26 04:00:29;;;;;;;6.40;0.80;;;8.90;99.90;;;;;;5065071;28;20700;-67
2024/01/26 04:02:57;;;;;;;6.10;0.70;;;8.80;99.90;;;;;;5065382;28;20446;-66
2024/01/26 04:05:25;;;;;;;6.70;1.07;;;8.80;99.90;;;;;;5066096;28;20532;-67
2024/01/26 04:07:54;;;;;;;6.70;1.03;;;8.70;99.90;;;;;;5065740;28;20548;-67
2024/01/26 04:10:22;;;;;;;7.30;1.20;;;8.80;99.90;;;;;;5064931;28;20449;-67
2024/01/26 04:12:50;;;;;;;6.63;1.00;;;8.80;99.90;;;;;;5064821;28;20568;-66
2024/01/26 04:15:18;;;;;;;6.20;0.90;;;8.80;99.90;;;;;;5065815;28;20503;-68
2024/01/26 04:17:46;;;;;;;7.23;0.93;;;8.90;99.90;;;;;;5066035;28;20561;-66
2024/01/26 04:20:14;;;;;;;6.30;0.90;;;8.90;99.90;;;;;;5065000;28;20448;-67
2024/01/26 04:22:43;;;;;;;6.47;0.83;;;8.90;99.90;;;;;;5064939;28;20442;-68
2024/01/26 04:25:12;;;;;;;6.30;1.00;;;9.00;99.90;;;;;;5065203;28;20450;-67
2024/01/26 04:27:40;;;;;;;6.50;0.90;;;9.00;99.90;;;;;;5065634;28;20823;-67
2024/01/26 04:30:09;;;;;;;6.40;1.00;;;9.10;99.90;;;;;;5065465;28;20438;-67
2024/01/26 04:32:38;;;;;;;6.90;1.00;;;9.10;99.90;;;;;;5065705;28;20469;-66
2024/01/26 04:35:07;;;;;;;9.07;1.33;;;9.10;99.90;;;;;;5069567;28;20577;-67
2024/01/26 04:37:35;;;;;;;6.60;1.10;;;9.10;99.90;;;;;;5069290;28;20493;-67
2024/01/26 04:40:03;;;;;;;8.00;1.40;;;9.10;99.90;;;;;;5069292;28;20923;-67
2024/01/26 04:42:32;;;;;;;6.80;1.20;;;9.10;99.90;;;;;;5068232;28;20522;-68
2024/01/26 04:45:00;;;;;;;6.67;1.20;;;9.10;99.90;;;;;;5069352;28;20438;-67
2024/01/26 04:47:28;;;;;;;7.73;1.53;;;9.10;99.90;;;;;;5068562;28;20523;-68
2024/01/26 04:49:56;;;;;;;7.53;1.60;;;9.10;99.90;;;;;;5070448;28;20943;-66
2024/01/26 04:52:26;;;;;;;7.40;1.33;;;9.10;99.90;;;;;;5069466;28;20454;-66
2024/01/26 04:54:53;;;;;;;6.63;1.30;;;9.10;99.90;;;;;;5069204;28;21170;-67
2024/01/26 04:57:21;;;;;;;6.60;1.40;;;9.00;99.90;;;;;;5069224;28;20528;-67
2024/01/26 04:59:50;;;;;;;7.03;1.87;;;9.00;99.90;;;;;;5069055;28;20896;-67
2024/01/26 05:02:18;;;;;;;6.90;1.60;;;9.00;99.90;;;;;;5067775;28;20461;-67
2024/01/26 05:04:46;;;;;;;7.70;1.63;;;9.10;99.90;;;;;;5069187;28;20438;-67
2024/01/26 05:07:15;;;;;;;6.60;1.40;;;9.00;99.90;;;;;;5069025;28;20505;-67
2024/01/26 05:09:43;;;;;;;7.43;1.30;;;9.10;99.90;;;;;;5068904;28;20446;-66
2024/01/26 05:12:16;;;;;;;8.10;2.20;;;9.10;99.90;;;;;;5067311;28;20536;-67
2024/01/26 05:14:44;;;;;;;8.60;1.70;;;9.10;99.90;;;;;;5068582;28;20494;-67
2024/01/26 05:17:13;;;;;;;7.00;1.60;;;9.20;99.90;;;;;;5068773;28;20552;-66
2024/01/26 05:19:41;;;;;;;7.57;1.60;;;9.20;99.90;;;;;;5068500;28;20471;-67
2024/01/26 05:22:09;;;;;;;7.37;1.73;;;9.20;99.90;;;;;;5066602;28;20430;-66
2024/01/26 05:24:37;;;;;;;8.30;1.50;;;9.20;99.90;;;;;;5068894;28;20528;-66
2024/01/26 05:27:07;;;;;;;6.60;1.37;;;9.10;99.90;;;;;;5068116;28;20469;-67
2024/01/26 05:29:35;;;;;;;7.03;1.60;;;9.00;99.90;;;;;;5068008;28;20507;-67
2024/01/26 05:32:04;;;;;;;6.83;1.30;;;9.00;99.90;;;;;;5066966;28;20453;-69
2024/01/26 05:34:34;;;;;;;7.40;1.57;;;8.90;99.90;;;;;;5067785;28;20547;-67
2024/01/26 05:37:02;;;;;;;7.57;2.33;;;8.80;99.90;;;;;;5067872;28;20456;-66
2024/01/26 05:39:30;;;;;;;7.80;1.90;;;8.80;99.90;;;;;;5067952;28;20436;-67
2024/01/26 05:41:58;;;;;;;9.80;2.00;;;8.70;99.90;;;;;;5065683;28;20542;-66
2024/01/26 05:44:26;;;;;;;9.47;1.93;;;8.70;99.90;;;;;;5067296;28;20442;-66
2024/01/26 05:46:54;;;;;;;9.53;2.00;;;8.70;99.90;;;;;;5067507;28;20814;-65
2024/01/26 05:49:23;;;;;;;8.30;1.50;;;8.60;99.90;;;;;;5067266;28;20533;-66
2024/01/26 05:51:53;;;;;;;7.30;1.60;;;8.50;99.90;;;;;;5066406;28;20475;-66
2024/01/26 05:54:21;;;;;;;7.97;1.97;;;8.40;99.90;;;;;;5067253;28;20509;-67
2024/01/26 05:56:49;;;;;;;7.73;1.63;;;8.40;99.90;;;;;;5068416;28;20453;-67
2024/01/26 05:59:17;;;;;;;7.40;1.77;;;8.50;99.90;;;;;;5068311;28;20603;-66
2024/01/26 06:01:45;;;;;;;7.30;1.63;;;8.40;99.90;;;;;;5067571;28;20511;-65
2024/01/26 06:04:13;;;;;;;7.47;1.43;;;8.50;99.90;;;;;;5067440;28;20434;-66
2024/01/26 06:06:41;;;;;;;6.93;1.37;;;8.50;99.90;;;;;;5067343;28;21120;-66
2024/01/26 06:09:10;;;;;;;9.17;1.90;;;8.40;99.90;;;;;;5066771;28;20779;-66
2024/01/26 06:11:41;;;;;;;7.10;1.50;;;8.50;99.90;;;;;;5065792;28;20530;-65
2024/01/26 06:14:09;;;;;;;8.67;1.93;;;8.50;99.90;;;;;;5066886;28;20486;-69
2024/01/26 06:16:37;;;;;;;6.73;1.60;;;8.40;99.90;;;;;;5066804;28;20481;-67
2024/01/26 06:19:05;;;;;;;7.30;1.80;;;8.40;99.90;;;;;;5066810;28;20470;-67
2024/01/26 06:21:34;;;;;;;7.07;1.90;;;8.40;99.90;;;;;;5065391;28;21038;-68
2024/01/26 06:24:02;;;;;;;6.50;1.30;;;8.40;99.90;;;;;;5066965;28;20451;-69
2024/01/26 06:26:31;;;;;;;7.20;1.47;;;8.40;99.90;;;;;;5064104;28;20538;-67
2024/01/26 06:28:59;;;;;;;7.57;1.37;;;8.40;99.90;;;;;;5066530;28;20486;-67
2024/01/26 06:31:27;;;;;;;8.40;1.90;;;8.50;99.90;;;;;;5064963;28;20540;-67
2024/01/26 06:33:55;;;;;;;7.40;1.67;;;8.40;99.90;;;;;;5066210;28;20484;-65
2024/01/26 06:36:24;;;;;;;8.60;1.67;;;8.50;99.90;;;;;;5065551;28;20532;-66
2024/01/26 06:38:52;;;;;;;7.93;1.50;;;8.50;99.90;;;;;;5065722;28;20467;-67
2024/01/26 06:41:20;;;;;;;12.50;1.77;;;8.40;99.90;;;;;;5066153;28;21006;-66
2024/01/26 06:43:51;;;;;;;8.40;1.70;;;8.50;99.90;;;;;;5066800;28;20448;-67
2024/01/26 06:46:22;;;;;;;7.87;1.30;;;8.60;99.90;;;;;;5066796;28;20449;-66
2024/01/26 06:48:50;;;;;;;8.77;1.47;;;8.60;99.90;;;;;;5066431;28;20475;-67
2024/01/26 06:51:19;;;;;;;7.20;1.30;;;8.70;99.90;;;;;;5065247;28;20449;-67
2024/01/26 06:53:47;;;;;;;6.40;0.90;;;8.80;99.90;;;;;;5067135;28;20531;-66
2024/01/26 06:56:15;;;;;;;6.50;1.00;;;8.90;99.90;;;;;;5067133;28;20536;-66
2024/01/26 06:58:44;;;;;;;7.00;1.20;;;9.00;99.90;;;;;;5059172;28;20468;-66
2024/01/26 07:01:14;;;;;;;6.93;1.10;;;9.00;99.90;;;;;;5066027;28;20498;-66
2024/01/26 07:03:42;;;;;;;6.83;1.00;;;9.10;99.90;;;;;;5067135;28;20865;-66
2024/01/26 07:06:10;;;;;;;6.23;0.83;;;9.10;99.90;;;;;;5067143;28;20507;-65
2024/01/26 07:08:38;;;;;;;6.20;0.80;;;9.30;99.90;;;;;;5067102;28;20483;-66
2024/01/26 07:11:11;;;;;;;6.80;1.00;;;9.40;99.90;;;;;;5065829;28;20447;-68
2024/01/26 07:13:39;;;;;;;7.10;1.03;;;9.40;99.90;;;;;;5066217;28;20460;-67
2024/01/26 07:16:07;;;;;;;7.00;1.03;;;9.50;99.90;;;;;;5068078;28;20485;-66
2024/01/26 07:18:36;;;;;;;9.13;1.40;;;9.60;99.90;;;;;;5067693;28;20466;-67
2024/01/26 07:21:08;;;;;;;8.20;0.80;;;9.70;99.90;;;;;;5066455;28;20485;-66
2024/01/26 07:23:39;;;;;;;6.30;0.80;;;9.80;99.90;;;;;;5067632;28;20885;-67
2024/01/26 07:26:07;;;;;;;7.10;0.93;;;9.80;99.90;;;;;;5067782;28;21097;-66
2024/01/26 07:28:36;;;;;;;6.00;0.70;;;9.90;99.90;;;;;;5067256;28;20551;-67
2024/01/26 07:31:04;;;;;;;6.40;0.93;;;9.90;99.90;;;;;;5064689;28;20463;-67
2024/01/26 07:33:32;;;;;;;6.20;0.63;;;9.90;99.90;;;;;;5066239;28;20995;-67
2024/01/26 07:36:01;;;;;;;7.10;1.20;;;9.90;99.90;;;;;;5066427;28;21023;-66
2024/01/26 07:38:29;;;;;;;7.90;1.03;;;10.00;99.90;;;;;;5066589;28;20477;-68
2024/01/26 07:40:58;;;;;;;6.80;1.00;;;10.00;99.90;;;;;;5065302;28;20481;-67
2024/01/26 07:43:26;;;;;;;6.60;1.10;;;10.00;99.90;;;;;;5063908;28;20470;-67
2024/01/26 07:45:54;;;;;;;6.80;1.00;;;10.00;99.90;;;;;;5064808;28;21011;-67
2024/01/26 07:48:22;;;;;;;6.90;1.00;;;10.10;99.90;;;;;;5065181;28;20461;-67
2024/01/26 07:50:51;;;;;;;6.43;0.90;;;10.20;99.90;;;;;;5064323;28;20473;-67
2024/01/26 07:53:20;;;;;;;6.27;0.87;;;10.20;99.90;;;;;;5064982;28;20533;-65
2024/01/26 07:55:48;;;;;;;7.80;1.00;;;10.30;99.90;;;;;;5057752;28;20861;-67
2024/01/26 07:58:16;;;;;;;6.80;1.00;;;10.30;99.90;;;;;;5064042;28;20975;-67
2024/01/26 08:00:46;;;;;;;6.60;0.90;;;10.30;99.90;;;;;;5056798;28;20536;-66
2024/01/26 08:03:15;;;;;;;7.10;1.10;;;10.30;99.90;;;;;;5066651;28;20454;-66
2024/01/26 08:05:43;;;;;;;7.77;0.87;;;10.40;99.90;;;;;;5066290;28;20602;-67
2024/01/26 08:08:11;;;;;;;6.27;0.77;;;10.50;99.90;;;;;;5067461;28;20988;-67
2024/01/26 08:10:40;;;;;;;6.50;1.20;;;10.60;99.90;;;;;;5069384;28;20522;-66
2024/01/26 08:13:09;;;;;;;7.03;1.20;;;10.70;99.90;;;;;;5069651;28;20459;-67
2024/01/26 08:15:37;;;;;;;7.00;1.00;;;10.70;99.90;;;;;;5070238;28;20489;-67
2024/01/26 08:18:05;;;;;;;7.10;1.30;;;10.70;99.90;;;;;;5070378;28;20566;-67
2024/01/26 08:20:34;;;;;;;7.63;1.20;;;10.80;99.90;;;;;;5069324;28;20447;-68
2024/01/26 08:23:02;;;;;;;8.40;1.10;;;10.80;99.90;;;;;;5069684;28;20451;-68
2024/01/26 08:25:32;;;;;;;7.23;1.00;;;10.90;99.90;;;;;;5069610;28;21361;-68
2024/01/26 08:28:01;;;;;;;7.43;1.30;;;10.90;99.90;;;;;;5070458;28;20555;-67
2024/01/26 08:30:29;;;;;;;6.40;1.13;;;10.90;99.90;;;;;;5069940;28;21049;-67
2024/01/26 08:32:57;;;;;;;7.70;1.60;;;11.00;99.90;;;;;;5070908;28;20501;-67
2024/01/26 08:35:25;;;;;;;6.53;1.10;;;11.00;99.90;;;;;;5071269;28;20480;-67
2024/01/26 08:37:54;;;;;;;7.00;1.40;;;11.00;99.90;;;;;;5070638;28;20487;-67
2024/01/26 08:40:21;;;;;;;6.40;0.93;;;11.00;99.90;;;;;;5069972;28;20819;-67
2024/01/26 08:42:49;;;;;;;11.40;1.30;;;11.00;99.90;;;;;;5067259;28;20455;-67
2024/01/26 08:45:19;;;;;;;6.73;1.20;;;11.10;99.90;;;;;;5070274;28;20448;-67
2024/01/26 08:47:47;;;;;;;8.53;1.00;;;11.20;99.90;;;;;;5070461;28;20463;-66
2024/01/26 08:50:16;;;;;;;6.70;1.30;;;11.20;99.90;;;;;;5069879;28;20439;-66
2024/01/26 08:52:44;;;;;;;6.97;1.20;;;11.30;99.90;;;;;;5068856;28;20447;-66
2024/01/26 08:55:12;;;;;;;7.30;1.43;;;11.30;99.90;;;;;;5068799;28;20569;-68
2024/01/26 08:57:43;;;;;;;8.30;1.20;;;11.30;99.90;;;;;;5069143;28;20474;-67
2024/01/26 09:00:12;;;;;;;8.40;1.00;;;11.30;99.90;;;;;;5068249;28;20513;-66
2024/01/26 09:02:42;;;;;;;6.37;1.07;;;11.30;99.90;;;;;;5068482;28;20444;-67
2024/01/26 09:05:11;;;;;;;6.57;1.10;;;11.40;99.90;;;;;;5069406;28;20448;-66
2024/01/26 09:07:39;;;;;;;6.50;0.83;;;11.60;99.90;;;;;;5069285;28;20469;-67
2024/01/26 09:10:08;;;;;;;7.17;1.03;;;11.60;99.90;;;;;;5068789;28;20447;-67
2024/01/26 09:12:36;;;;;;;7.07;0.90;;;11.70;99.90;;;;;;5068236;28;20457;-67
2024/01/26 09:15:04;;;;;;;6.63;1.10;;;11.70;99.90;;;;;;5068511;28;21270;-67
2024/01/26 09:17:33;;;;;;;6.50;1.00;;;11.80;99.90;;;;;;5068472;28;20491;-67
2024/01/26 09:20:03;;;;;;;6.40;1.00;;;11.80;99.90;;;;;;5068306;28;21116;-67
2024/01/26 09:22:32;;;;;;;6.77;1.20;;;11.90;99.90;;;;;;5067255;28;20457;-66
2024/01/26 09:25:00;;;;;;;6.50;0.90;;;11.90;99.90;;;;;;5069790;28;20457;-66
2024/01/26 09:27:29;;;;;;;7.03;1.20;;;11.90;99.90;;;;;;5069626;28;20498;-66
2024/01/26 09:29:56;;;;;;;6.60;0.97;;;12.00;99.90;;;;;;5069567;28;20895;-66
2024/01/26 09:32:24;;;;;;;6.33;1.10;;;12.10;99.90;;;;;;5068982;28;21002;-67
2024/01/26 09:34:52;;;;;;;7.03;1.10;;;12.10;99.90;;;;;;5069596;28;20447;-66
2024/01/26 09:37:22;;;;;;;7.23;1.07;;;12.20;99.90;;;;;;5069819;28;20580;-67
2024/01/26 09:39:50;;;;;;;6.07;0.67;;;12.10;99.90;;;;;;5070101;28;20542;-67
2024/01/26 09:42:18;;;;;;;7.27;1.03;;;12.10;99.90;;;;;;5068460;28;20444;-68
2024/01/26 09:44:46;;;;;;;6.10;1.00;;;12.10;99.90;;;;;;5069677;28;20466;-67
2024/01/26 09:47:15;;;;;;;7.63;1.20;;;12.10;99.90;;;;;;5070003;28;20471;-68
2024/01/26 09:49:50;;;;;;;8.30;1.27;;;12.10;99.90;;;;;;5069698;28;20586;-66
2024/01/26 09:52:19;;;;;;;7.53;1.07;;;12.00;99.90;;;;;;5068233;28;20438;-67
2024/01/26 09:54:50;;;;;;;7.63;1.50;;;12.00;99.90;;;;;;5069465;28;20529;-65
2024/01/26 09:57:20;;;;;;;6.70;1.50;;;12.10;99.90;;;;;;5069412;28;20576;-66
2024/01/26 09:59:50;;;;;;;6.60;0.83;;;12.10;99.90;;;;;;5069459;28;21096;-68
2024/01/26 10:02:19;;;;;;;7.53;1.10;;;12.30;99.90;;;;;;5068669;28;21082;-66
2024/01/26 10:04:47;;;;;;;6.73;0.90;;;12.30;99.90;;;;;;5069291;28;20446;-66
2024/01/26 10:07:16;;;;;;;6.60;1.07;;;12.20;99.90;;;;;;5069015;28;20465;-66
2024/01/26 10:09:44;;;;;;;6.17;0.80;;;12.10;99.90;;;;;;5069248;28;20801;-68
2024/01/26 10:12:15;;;;;;;8.00;1.20;;;12.10;99.90;;;;;;5067543;28;20460;-68
2024/01/26 10:14:43;;;;;;;8.17;1.00;;;12.20;99.90;;;;;;5068246;28;20504;-66
2024/01/26 10:17:17;;;;;;;6.13;0.73;;;12.20;99.90;;;;;;5067898;28;20497;-66
2024/01/26 10:19:46;;;;;;;7.03;0.83;;;12.30;99.90;;;;;;5068019;28;20446;-66
2024/01/26 10:22:15;;;;;;;6.07;0.60;;;12.20;99.90;;;;;;5066936;28;20453;-66
2024/01/26 10:24:44;;;;;;;6.77;0.80;;;12.20;99.90;;;;;;5068180;28;20464;-67
2024/01/26 10:27:13;;;;;;;6.90;1.20;;;12.20;99.90;;;;;;5067887;28;20468;-66
2024/01/26 10:29:43;;;;;;;6.60;1.00;;;12.30;99.90;;;;;;5067675;28;20447;-66
2024/01/26 10:32:15;;;;;;;8.83;1.33;;;12.40;99.90;;;;;;5065693;28;21150;-67
2024/01/26 10:34:45;;;;;;;7.50;1.40;;;12.50;99.90;;;;;;5067360;28;21153;-68
2024/01/26 10:37:19;;;;;;;7.30;1.30;;;12.60;99.90;;;;;;5067671;28;20578;-67
2024/01/26 10:39:50;;;;;;;9.50;2.73;;;12.60;99.90;;;;;;5067590;28;20444;-67
2024/01/26 10:42:20;;;;;;;6.63;1.10;;;12.70;99.90;;;;;;5065535;28;20453;-67
2024/01/26 10:44:49;;;;;;;6.17;0.93;;;12.60;99.90;;;;;;5068276;28;20462;-69
2024/01/26 10:47:18;;;;;;;6.40;0.77;;;12.60;99.90;;;;;;5068301;28;20465;-68
2024/01/26 10:49:48;;;;;;;6.50;1.13;;;12.50;99.90;;;;;;5067590;28;20466;-67
2024/01/26 10:52:18;;;;;;;7.27;0.90;;;12.50;99.90;;;;;;5066383;28;20485;-67
2024/01/26 10:54:49;;;;;;;7.70;1.03;;;12.50;99.90;;;;;;5067392;28;20439;-66
2024/01/26 10:57:19;;;;;;;6.30;0.90;;;12.50;99.90;;;;;;5066685;28;20495;-68
2024/01/26 10:59:48;;;;;;;11.23;1.30;;;12.50;99.90;;;;;;5067577;28;20436;-67
2024/01/26 11:02:19;;;;;;;7.07;0.83;;;12.50;99.90;;;;;;5066252;28;20450;-67
2024/01/26 11:04:47;;;;;;;7.10;0.90;;;12.50;99.90;;;;;;5067114;28;20447;-66
2024/01/26 11:07:18;;;;;;;6.60;0.90;;;12.50;99.90;;;;;;5067074;28;20470;-66
2024/01/26 11:09:49;;;;;;;6.10;0.83;;;12.60;99.90;;;;;;5067216;28;20453;-66
2024/01/26 11:12:22;;;;;;;7.30;0.80;;;12.70;99.90;;;;;;5065633;28;20561;-67
2024/01/26 11:15:04;;;;;;;9.63;1.07;;;12.70;99.90;;;;;;5067002;28;20446;-67
2024/01/26 11:17:43;;;;;;;7.90;2.37;;;12.50;99.90;;;;;;5067750;28;20971;-66
2024/01/26 11:20:15;;;;;;;8.00;1.30;;;12.40;99.90;;;;;;5067268;28;20528;-66
2024/01/26 11:22:43;;;;;;;6.47;0.93;;;12.30;99.90;;;;;;5067306;28;20524;-66
2024/01/26 11:25:21;;;;;;;6.50;0.73;;;12.40;99.90;;;;;;5067647;28;20488;-67
2024/01/26 11:27:58;;;;;;;6.60;1.00;;;12.40;99.90;;;;;;5067831;28;20467;-67
2024/01/26 11:30:27;;;;;;;6.20;0.90;;;12.50;99.90;;;;;;5066972;28;20448;-67
2024/01/26 11:32:56;;;;;;;7.50;1.00;;;12.50;99.90;;;;;;5067373;28;20851;-66
2024/01/26 11:35:25;;;;;;;7.40;1.00;;;12.50;99.90;;;;;;5067696;28;20447;-68
2024/01/26 11:37:54;;;;;;;6.70;0.90;;;12.30;99.90;;;;;;5066113;28;20521;-65
2024/01/26 11:40:23;;;;;;;6.67;0.90;;;12.20;99.90;;;;;;5065587;28;20948;-68
2024/01/26 11:42:53;;;;;;;6.33;1.10;;;12.20;99.90;;;;;;5066031;28;20446;-67
2024/01/26 11:45:41;;;;;;;6.30;0.80;;;12.30;99.90;;;;;;5066723;28;20844;-67
2024/01/26 11:48:11;;;;;;;6.13;1.00;;;12.40;99.90;;;;;;5067309;28;20823;-67
2024/01/26 11:50:42;;;;;;;6.67;1.00;;;12.50;99.90;;;;;;5066085;28;20440;-67
2024/01/26 11:53:11;;;;;;;6.07;0.73;;;12.40;99.90;;;;;;5066865;28;20562;-67
2024/01/26 11:55:39;;;;;;;6.20;0.70;;;12.40;99.90;;;;;;5066239;28;21048;-66
2024/01/26 11:58:10;;;;;;;6.83;0.90;;;12.40;99.90;;;;;;5066289;28;20494;-67
2024/01/26 12:00:40;;;;;;;7.07;1.07;;;12.30;99.90;;;;;;5065695;28;20536;-67
2024/01/26 12:03:09;;;;;;;6.77;0.90;;;12.10;99.90;;;;;;5065945;28;20539;-66
2024/01/26 12:05:38;;;;;;;7.10;1.00;;;12.00;99.90;;;;;;5066049;28;20499;-66
2024/01/26 12:08:07;;;;;;;6.53;0.70;;;11.80;99.90;;;;;;5066392;28;20561;-66
2024/01/26 12:10:36;;;;;;;6.63;1.03;;;11.70;99.90;;;;;;5066204;28;20965;-66
2024/01/26 12:13:05;;;;;;;6.70;0.90;;;11.60;99.90;;;;;;5066728;28;21047;-66
2024/01/26 12:15:39;;;;;;;6.23;0.93;;;11.60;99.90;;;;;;5067150;28;20526;-65
2024/01/26 12:18:10;;;;;;;6.37;1.30;;;11.60;99.90;;;;;;5066119;28;20487;-66
2024/01/26 12:20:40;;;;;;;6.80;1.17;;;11.60;99.90;;;;;;5064679;28;20539;-66
2024/01/26 12:23:16;;;;;;;6.67;0.80;;;11.70;99.90;;;;;;5065451;28;20442;-68
2024/01/26 12:25:44;;;;;;;6.10;0.80;;;11.70;99.90;;;;;;5065148;28;20803;-68
2024/01/26 12:28:14;;;;;;;6.60;1.00;;;11.80;99.90;;;;;;5065568;28;20497;-67
2024/01/26 12:30:46;;;;;;;6.83;1.07;;;11.80;99.90;;;;;;5064853;28;20644;-66
2024/01/26 12:33:15;;;;;;;6.30;1.13;;;11.80;99.90;;;;;;5066045;28;20507;-67
2024/01/26 12:35:46;;;;;;;6.20;0.77;;;12.00;99.90;;;;;;5065701;28;21214;-68
2024/01/26 12:38:16;;;;;;;7.73;1.17;;;12.00;99.90;;;;;;5065682;28;20580;-67
2024/01/26 12:40:45;;;;;;;7.57;1.23;;;12.10;99.90;;;;;;5064943;28;20455;-68
2024/01/26 12:43:13;;;;;;;7.03;1.47;;;12.20;99.90;;;;;;5065383;28;20503;-68
2024/01/26 12:45:41;;;;;;;6.60;1.23;;;12.20;99.90;;;;;;5064799;28;20959;-66
2024/01/26 12:48:10;;;;;;;7.33;1.17;;;12.20;99.90;;;;;;5064425;28;20597;-67
2024/01/26 12:50:38;;;;;;;6.40;1.00;;;12.10;99.90;;;;;;5065263;28;20444;-67
2024/01/26 12:53:06;;;;;;;6.57;0.70;;;12.00;99.90;;;;;;5065600;28;20456;-67
2024/01/26 12:55:34;;;;;;;6.10;0.70;;;11.80;99.90;;;;;;5067145;28;20537;-68
2024/01/26 12:58:02;;;;;;;6.50;0.80;;;11.70;99.90;;;;;;5058473;28;20487;-68
2024/01/26 13:00:31;;;;;;;6.17;0.80;;;11.60;99.90;;;;;;5065435;28;20442;-66